CPX458 Details

Departure: Tampa International Airport (KTPA)
Arrival: Chicago/Rockford International Airport (KRFD)
Route: ENDED8 LACEN BRUTS Q118 ATL BWG SPI BDF QUOTE


Current Weather Information
KTPA 231353Z 03010G18KT 10SM FEW250 22/08 A3009 RMK AO2 SLP189 T02220083
KRFD 231354Z 19005KT 10SM FEW150 SCT250 04/01 A2995 RMK AO2 SLP145 T00440011